createdAt,value
2022-08-25T00:01:56.397Z,101785.50
2022-08-25T00:04:24.394Z,101781.53
2022-08-25T00:06:52.771Z,101777.59
2022-08-25T00:09:23.163Z,101777.34
2022-08-25T00:11:50.511Z,101778.56
2022-08-25T00:14:23.980Z,101768.69
2022-08-25T00:16:50.517Z,101773.09
2022-08-25T00:19:20.822Z,101765.22
2022-08-25T00:21:47.639Z,101768.69
2022-08-25T00:24:17.226Z,101762.53
2022-08-25T00:26:48.541Z,101760.78
2022-08-25T00:29:15.560Z,101765.69
2022-08-25T00:31:42.597Z,101763.47
2022-08-25T00:34:12.361Z,101760.00
2022-08-25T00:36:39.499Z,101762.69
2022-08-25T00:39:08.166Z,101760.22
2022-08-25T00:41:35.988Z,101763.88
2022-08-25T00:44:06.212Z,101762.13
2022-08-25T00:46:42.331Z,101761.91
2022-08-25T00:49:24.740Z,101763.84
2022-08-25T00:52:14.960Z,101763.09
2022-08-25T00:54:53.179Z,101759.88
2022-08-25T00:57:35.114Z,101760.34
2022-08-25T01:00:06.777Z,101763.75
2022-08-25T01:02:33.312Z,101763.25
2022-08-25T01:04:59.756Z,101758.06
2022-08-25T01:07:26.219Z,101760.50
2022-08-25T01:09:53.306Z,101758.50
2022-08-25T01:12:20.574Z,101761.47
2022-08-25T01:14:48.826Z,101764.63
2022-08-25T01:17:16.180Z,101759.44
2022-08-25T01:19:42.804Z,101756.69
2022-08-25T01:22:11.886Z,101746.38
2022-08-25T01:24:46.407Z,101743.66
2022-08-25T01:27:13.512Z,101748.53
2022-08-25T01:29:40.148Z,101746.81
2022-08-25T01:32:10.243Z,101742.09
2022-08-25T01:34:40.932Z,101745.03
2022-08-25T01:37:07.942Z,101746.72
2022-08-25T01:39:38.585Z,101747.44
2022-08-25T01:42:11.306Z,101749.13
2022-08-25T01:44:40.792Z,101754.50
2022-08-25T01:47:08.248Z,101748.09
2022-08-25T01:49:35.160Z,101741.69
2022-08-25T01:52:10.329Z,101746.09
2022-08-25T01:54:36.768Z,101745.84
2022-08-25T01:57:03.441Z,101745.31
2022-08-25T01:59:30.276Z,101746.28
2022-08-25T02:01:59.893Z,101739.38
2022-08-25T02:04:31.933Z,101741.28
2022-08-25T02:07:03.796Z,101748.91
2022-08-25T02:09:30.581Z,101740.50
2022-08-25T02:11:57.259Z,101742.19
2022-08-25T02:14:23.844Z,101735.81
2022-08-25T02:16:52.205Z,101743.66
2022-08-25T02:19:20.487Z,101735.78
2022-08-25T02:21:47.117Z,101740.16
2022-08-25T02:24:14.031Z,101738.66
2022-08-25T02:26:42.210Z,101742.56
2022-08-25T02:29:09.459Z,101738.19
2022-08-25T02:31:36.468Z,101741.66
2022-08-25T02:34:03.996Z,101738.94
2022-08-25T02:36:32.044Z,101735.50
2022-08-25T02:38:58.700Z,101735.50
2022-08-25T02:41:31.321Z,101733.25
2022-08-25T02:43:58.751Z,101732.81
2022-08-25T02:46:25.292Z,101728.59
2022-08-25T02:48:53.200Z,101722.94
2022-08-25T02:51:28.299Z,101720.22
2022-08-25T02:53:54.755Z,101724.16
2022-08-25T02:56:21.413Z,101723.88
2022-08-25T02:58:48.319Z,101726.09
2022-08-25T03:01:16.385Z,101722.66
2022-08-25T03:03:45.040Z,101721.19
2022-08-25T03:06:14.488Z,101716.53
2022-08-25T03:08:42.043Z,101713.06
2022-08-25T03:11:08.472Z,101715.03
2022-08-25T03:13:35.176Z,101714.78
2022-08-25T03:16:04.728Z,101701.75
2022-08-25T03:18:31.655Z,101701.28
2022-08-25T03:20:58.902Z,101694.38
2022-08-25T03:23:25.874Z,101704.44
2022-08-25T03:26:13.596Z,101699.06
2022-08-25T03:28:41.628Z,101701.00
2022-08-25T03:31:09.089Z,101695.34
2022-08-25T03:33:36.392Z,101690.41
2022-08-25T03:36:03.311Z,101695.81
2022-08-25T03:38:29.806Z,101688.66
2022-08-25T03:40:56.247Z,101690.84
2022-08-25T03:43:22.879Z,101683.69
2022-08-25T03:45:49.583Z,101688.81
2022-08-25T03:48:17.291Z,101690.03
2022-08-25T03:50:51.558Z,101677.50
2022-08-25T03:53:19.148Z,101673.56
2022-08-25T03:55:45.595Z,101676.47
2022-08-25T03:58:12.297Z,101681.34
2022-08-25T04:00:39.487Z,101680.53
2022-08-25T04:03:06.289Z,101673.13
2022-08-25T04:05:32.959Z,101673.78
2022-08-25T04:08:01.627Z,101666.91
2022-08-25T04:10:29.027Z,101672.03
2022-08-25T04:12:56.043Z,101670.03
2022-08-25T04:15:22.829Z,101661.94
2022-08-25T04:17:51.838Z,101664.84
2022-08-25T04:20:19.056Z,101662.63
2022-08-25T04:22:45.789Z,101663.13
2022-08-25T04:25:12.517Z,101656.44
2022-08-25T04:27:39.080Z,101655.16
2022-08-25T04:30:06.599Z,101656.09
2022-08-25T04:32:35.189Z,101656.56
2022-08-25T04:35:01.679Z,101650.06
2022-08-25T04:37:28.142Z,101652.78
2022-08-25T04:39:54.585Z,101655.47
2022-08-25T04:42:21.674Z,101651.56
2022-08-25T04:44:48.666Z,101652.97
2022-08-25T04:47:15.116Z,101653.19
2022-08-25T04:49:41.647Z,101660.06
2022-08-25T04:52:13.197Z,101656.16
2022-08-25T04:54:41.109Z,101654.66
2022-08-25T04:57:07.533Z,101654.66
2022-08-25T04:59:34.255Z,101653.44
2022-08-25T05:02:05.110Z,101650.00
2022-08-25T05:04:33.798Z,101655.19
2022-08-25T05:07:00.996Z,101657.91
2022-08-25T05:09:28.064Z,101652.50
2022-08-25T05:11:54.850Z,101654.25
2022-08-25T05:14:26.366Z,101653.34
2022-08-25T05:16:54.738Z,101656.56
2022-08-25T05:19:21.991Z,101659.81
2022-08-25T05:21:48.464Z,101662.09
2022-08-25T05:24:14.999Z,101661.19
2022-08-25T05:26:43.384Z,101660.31
2022-08-25T05:29:10.914Z,101660.38
2022-08-25T05:31:42.327Z,101671.75
2022-08-25T05:34:11.858Z,101675.50
2022-08-25T05:36:43.017Z,101679.03
2022-08-25T05:39:10.257Z,101678.63
2022-08-25T05:41:37.051Z,101694.59
2022-08-25T05:44:03.759Z,101686.66
2022-08-25T05:46:31.553Z,101686.75
2022-08-25T05:48:58.834Z,101683.31
2022-08-25T05:51:26.195Z,101688.47
2022-08-25T05:53:52.840Z,101691.91
2022-08-25T05:56:20.174Z,101685.28
2022-08-25T05:58:47.527Z,101688.63
2022-08-25T06:01:43.467Z,101688.44
2022-08-25T06:04:12.114Z,101686.44
2022-08-25T06:06:39.343Z,101692.41
2022-08-25T06:09:08.432Z,101691.50
2022-08-25T06:11:37.911Z,101690.41
2022-08-25T06:14:04.750Z,101690.78
2022-08-25T06:16:31.782Z,101688.19
2022-08-25T06:18:58.401Z,101700.59
2022-08-25T06:21:25.228Z,101701.88
2022-08-25T06:23:51.674Z,101696.63
2022-08-25T06:26:21.325Z,101702.34
2022-08-25T06:28:49.008Z,101698.00
2022-08-25T06:31:15.557Z,101696.53
2022-08-25T06:33:42.108Z,101701.00
2022-08-25T06:36:08.719Z,101705.91
2022-08-25T06:38:35.740Z,101701.94
2022-08-25T06:41:04.332Z,101709.56
2022-08-25T06:43:33.088Z,101706.13
2022-08-25T06:46:11.510Z,101705.91
2022-08-25T06:48:38.359Z,101703.09
2022-08-25T06:51:07.309Z,101696.13
2022-08-25T06:53:34.220Z,101690.13
2022-08-25T06:56:05.952Z,101692.78
2022-08-25T06:58:33.828Z,101694.75
2022-08-25T07:01:19.721Z,101695.66
2022-08-25T07:03:48.010Z,101696.81
2022-08-25T07:06:15.258Z,101693.50
2022-08-25T07:08:46.453Z,101689.47
2022-08-25T07:11:17.357Z,101687.16
2022-08-25T07:13:45.356Z,101691.69
2022-08-25T07:16:12.719Z,101696.97
2022-08-25T07:18:39.327Z,101685.91
2022-08-25T07:21:08.888Z,101692.19
2022-08-25T07:23:36.848Z,101694.81
2022-08-25T07:26:36.354Z,101696.81
2022-08-25T07:29:12.063Z,101702.25
2022-08-25T07:31:39.416Z,101699.59
2022-08-25T07:34:26.117Z,101695.94
2022-08-25T07:36:54.037Z,101696.72
2022-08-25T07:39:21.991Z,101696.56
2022-08-25T07:41:52.232Z,101696.72
2022-08-25T07:44:21.628Z,101697.31
2022-08-25T07:46:50.229Z,101694.75
2022-08-25T07:49:18.136Z,101691.09
2022-08-25T07:52:05.697Z,101688.63
2022-08-25T07:54:35.551Z,101690.13
2022-08-25T07:57:04.664Z,101684.19
2022-08-25T07:59:39.329Z,101683.03
2022-08-25T08:02:09.024Z,101691.34
2022-08-25T08:04:46.249Z,101687.38
2022-08-25T08:07:12.760Z,101684.59
2022-08-25T08:09:39.297Z,101685.00
2022-08-25T08:12:06.538Z,101687.81
2022-08-25T08:14:32.968Z,101682.72
2022-08-25T08:16:59.815Z,101676.66
2022-08-25T08:19:26.518Z,101672.81
2022-08-25T08:21:54.333Z,101681.00
2022-08-25T08:24:40.818Z,101676.41
2022-08-25T08:27:11.335Z,101674.91
2022-08-25T08:29:39.156Z,101674.47
2022-08-25T08:32:09.648Z,101679.63
2022-08-25T08:34:36.763Z,101667.66
2022-08-25T08:37:03.570Z,101668.13
2022-08-25T08:39:30.227Z,101668.84
2022-08-25T08:42:17.373Z,101670.16
2022-08-25T08:44:46.754Z,101663.59
2022-08-25T08:47:31.269Z,101656.31
2022-08-25T08:50:04.085Z,101660.34
2022-08-25T08:52:43.228Z,101661.50
2022-08-25T08:55:39.479Z,101661.31
2022-08-25T08:58:13.050Z,101655.66
2022-08-25T09:00:52.346Z,101654.41
2022-08-25T09:03:27.225Z,101653.50
2022-08-25T09:05:57.579Z,101653.31
2022-08-25T09:08:24.019Z,101659.88
2022-08-25T09:11:31.026Z,101655.31
2022-08-25T09:14:16.254Z,101648.56
2022-08-25T09:16:54.818Z,101644.47
2022-08-25T09:20:02.953Z,101657.41
2022-08-25T09:23:03.126Z,101649.38
2022-08-25T09:25:56.242Z,101654.06
2022-08-25T09:28:36.471Z,101654.44
2022-08-25T09:31:12.516Z,101653.63
2022-08-25T09:33:39.251Z,101648.50
2022-08-25T09:36:08.843Z,101650.66
2022-08-25T09:38:36.267Z,101652.19
2022-08-25T09:41:03.781Z,101652.16
2022-08-25T09:43:33.068Z,101638.72
2022-08-25T09:46:23.220Z,101640.94
2022-08-25T09:48:59.273Z,101650.75
2022-08-25T09:51:42.479Z,101646.78
2022-08-25T09:54:12.663Z,101638.03
2022-08-25T09:56:49.901Z,101624.38
2022-08-25T09:59:34.427Z,101631.03
2022-08-25T10:02:23.824Z,101627.59
2022-08-25T10:04:50.724Z,101613.78
2022-08-25T10:07:27.552Z,101624.31
2022-08-25T10:09:57.380Z,101618.22
2022-08-25T10:12:37.259Z,101619.34
2022-08-25T10:15:29.073Z,101613.41
2022-08-25T10:17:56.576Z,101607.13
2022-08-25T10:20:27.165Z,101614.00
2022-08-25T10:23:13.025Z,101602.16
2022-08-25T10:26:00.411Z,101597.13
2022-08-25T10:28:41.352Z,101589.44
2022-08-25T10:31:22.338Z,101586.56
2022-08-25T10:33:52.392Z,101581.78
2022-08-25T10:36:23.344Z,101578.53
2022-08-25T10:39:01.855Z,101580.41
2022-08-25T10:41:43.864Z,101577.66
2022-08-25T10:44:52.730Z,101578.84
2022-08-25T10:47:39.253Z,101562.59
2022-08-25T10:50:08.353Z,101564.34
2022-08-25T10:52:39.271Z,101563.91
2022-08-25T10:55:25.951Z,101552.59
2022-08-25T10:58:23.261Z,101546.03
2022-08-25T11:01:18.667Z,101549.09
2022-08-25T11:03:59.674Z,101544.63
2022-08-25T11:06:40.543Z,101542.28
2022-08-25T11:09:12.895Z,101539.06
2022-08-25T11:11:46.290Z,101538.50
2022-08-25T11:14:35.420Z,101536.00
2022-08-25T11:17:09.731Z,101531.78
2022-08-25T11:19:49.002Z,101531.19
2022-08-25T11:22:36.936Z,101527.00
2022-08-25T11:25:25.827Z,101529.66
2022-08-25T11:28:06.216Z,101524.97
2022-08-25T11:30:33.175Z,101524.97
2022-08-25T11:33:00.062Z,101522.38
2022-08-25T11:35:58.868Z,101518.47
2022-08-25T11:39:00.956Z,101512.25
2022-08-25T11:41:38.078Z,101509.03
2022-08-25T11:44:53.251Z,101500.47
2022-08-25T11:47:38.417Z,101502.19
2022-08-25T11:50:25.873Z,101497.56
2022-08-25T11:53:02.234Z,101505.13
2022-08-25T11:55:34.847Z,101494.78
2022-08-25T11:58:40.590Z,101495.66
2022-08-25T12:01:43.071Z,101496.41
2022-08-25T12:04:44.406Z,101499.16
2022-08-25T12:07:14.870Z,101497.56
2022-08-25T12:09:50.831Z,101501.31
2022-08-25T12:12:56.484Z,101497.66
2022-08-25T12:15:32.157Z,101494.16
2022-08-25T12:18:15.442Z,101490.78
2022-08-25T12:20:54.780Z,101495.78
2022-08-25T12:24:02.833Z,101492.56
2022-08-25T12:26:40.303Z,101490.38
2022-08-25T12:29:25.006Z,101491.97
2022-08-25T12:31:57.452Z,101482.16
2022-08-25T12:34:44.239Z,101487.63
2022-08-25T12:37:16.425Z,101480.97
2022-08-25T12:40:06.464Z,101479.25
2022-08-25T12:42:40.765Z,101473.16
2022-08-25T12:45:34.380Z,101472.56
2022-08-25T12:48:25.992Z,101468.22
2022-08-25T12:50:57.661Z,101470.53
2022-08-25T12:53:40.368Z,101476.66
2022-08-25T12:56:31.351Z,101462.75
2022-08-25T12:59:18.647Z,101467.22
2022-08-25T13:02:10.056Z,101459.22
2022-08-25T13:04:55.048Z,101468.47
2022-08-25T13:07:21.506Z,101461.38
2022-08-25T13:10:07.452Z,101466.75
2022-08-25T13:12:46.605Z,101451.81
2022-08-25T13:15:15.974Z,101456.16
2022-08-25T13:17:42.827Z,101452.66
2022-08-25T13:20:15.282Z,101452.69
2022-08-25T13:22:46.863Z,101444.69
2022-08-25T13:25:18.554Z,101448.16
2022-08-25T13:27:57.476Z,101441.66
2022-08-25T13:30:36.550Z,101436.28
2022-08-25T13:33:21.798Z,101436.94
2022-08-25T13:35:52.377Z,101434.91
2022-08-25T13:38:19.437Z,101430.88
2022-08-25T13:40:46.018Z,101429.25
2022-08-25T13:43:14.170Z,101429.94
2022-08-25T13:45:47.219Z,101432.72
2022-08-25T13:48:30.817Z,101425.44
2022-08-25T13:51:23.665Z,101425.44
2022-08-25T13:54:02.728Z,101424.00
2022-08-25T13:56:41.830Z,101407.63
2022-08-25T13:59:40.104Z,101412.41
2022-08-25T14:02:09.168Z,101406.59
2022-08-25T14:04:51.572Z,101404.09
2022-08-25T14:07:34.036Z,101407.72
2022-08-25T14:10:31.161Z,101399.75
2022-08-25T14:13:14.462Z,101400.31
2022-08-25T14:15:45.046Z,101396.38
2022-08-25T14:18:26.889Z,101396.09
2022-08-25T14:20:56.029Z,101402.50
2022-08-25T14:23:26.926Z,101396.84
2022-08-25T14:25:56.396Z,101395.84
2022-08-25T14:28:25.979Z,101396.25
2022-08-25T14:31:08.779Z,101388.31
2022-08-25T14:34:00.925Z,101389.72
2022-08-25T14:36:29.795Z,101393.13
2022-08-25T14:38:57.519Z,101389.34
2022-08-25T14:41:25.371Z,101391.38
2022-08-25T14:43:52.548Z,101386.56
2022-08-25T14:46:24.653Z,101385.84
2022-08-25T14:48:56.555Z,101385.78
2022-08-25T14:51:25.725Z,101381.59
2022-08-25T14:53:57.314Z,101382.16
2022-08-25T14:56:24.096Z,101379.34
2022-08-25T14:58:54.438Z,101370.75
2022-08-25T15:01:28.445Z,101373.09
2022-08-25T15:04:01.696Z,101377.88
2022-08-25T15:06:28.540Z,101381.00
2022-08-25T15:09:08.244Z,101376.53
2022-08-25T15:11:36.452Z,101373.75
2022-08-25T15:14:05.383Z,101371.25
2022-08-25T15:16:50.751Z,101371.81
2022-08-25T15:19:19.824Z,101370.84
2022-08-25T15:21:47.777Z,101366.72
2022-08-25T15:24:17.504Z,101371.50
2022-08-25T15:29:27.272Z,101362.19
2022-08-25T15:31:53.939Z,101357.41
2022-08-25T15:34:20.566Z,101358.91
2022-08-25T15:36:47.670Z,101358.91
2022-08-25T15:39:15.072Z,101366.81
2022-08-25T15:41:46.093Z,101357.75
2022-08-25T15:44:16.031Z,101364.56
2022-08-25T15:46:47.083Z,101356.78
2022-08-25T15:49:16.279Z,101356.69
2022-08-25T15:51:52.224Z,101349.75
2022-08-25T15:54:18.696Z,101348.22
2022-08-25T15:56:45.832Z,101349.63
2022-08-25T15:59:13.463Z,101352.16
2022-08-25T16:01:41.302Z,101351.75
2022-08-25T16:04:07.851Z,101349.34
2022-08-25T16:06:34.351Z,101342.56
2022-08-25T16:09:01.760Z,101347.66
2022-08-25T16:11:30.433Z,101341.63
2022-08-25T16:13:57.514Z,101348.06
2022-08-25T16:16:26.854Z,101345.09
2022-08-25T16:18:54.190Z,101335.56
2022-08-25T16:21:25.956Z,101339.94
2022-08-25T16:23:59.733Z,101340.09
2022-08-25T16:26:30.776Z,101345.03
2022-08-25T16:28:57.624Z,101336.06
2022-08-25T16:31:24.589Z,101341.00
2022-08-25T16:33:54.678Z,101341.41
2022-08-25T16:36:27.087Z,101333.94
2022-08-25T16:38:55.390Z,101336.19
2022-08-25T16:41:25.312Z,101339.88
2022-08-25T16:43:52.797Z,101338.25
2022-08-25T16:46:20.987Z,101335.34
2022-08-25T16:48:48.621Z,101338.81
2022-08-25T16:51:19.287Z,101335.91
2022-08-25T16:54:07.523Z,101333.88
2022-08-25T16:56:35.691Z,101336.13
2022-08-25T16:59:06.233Z,101325.97
2022-08-25T17:01:36.357Z,101332.97
2022-08-25T17:04:04.514Z,101330.94
2022-08-25T17:06:35.659Z,101332.22
2022-08-25T17:09:02.247Z,101334.06
2022-08-25T17:11:35.074Z,101328.66
2022-08-25T17:14:04.520Z,101334.34
2022-08-25T17:16:37.826Z,101342.78
2022-08-25T17:19:08.070Z,101344.47
2022-08-25T17:21:45.119Z,101346.31
2022-08-25T17:24:13.247Z,101352.00
2022-08-25T17:26:45.963Z,101359.69
2022-08-25T17:29:12.742Z,101354.44
2022-08-25T17:31:39.988Z,101357.38
2022-08-25T17:34:12.836Z,101355.72
2022-08-25T17:36:43.483Z,101362.69
2022-08-25T17:39:12.357Z,101360.16
2022-08-25T17:41:39.653Z,101360.16
2022-08-25T17:44:07.284Z,101366.22
2022-08-25T17:46:33.907Z,101359.28
2022-08-25T17:49:00.566Z,101357.84
2022-08-25T17:51:29.703Z,101354.59
2022-08-25T17:53:59.072Z,101352.94
2022-08-25T17:56:27.225Z,101355.69
2022-08-25T17:58:55.880Z,101357.13
2022-08-25T18:01:28.302Z,101353.16
2022-08-25T18:03:56.152Z,101358.59
2022-08-25T18:06:23.785Z,101359.34
2022-08-25T18:08:52.176Z,101355.84
2022-08-25T18:11:21.554Z,101357.84
2022-08-25T18:13:48.019Z,101362.94
2022-08-25T18:16:17.215Z,101357.13
2022-08-25T18:18:44.501Z,101370.38
2022-08-25T18:21:13.568Z,101366.53
2022-08-25T18:23:41.733Z,101367.25
2022-08-25T18:26:08.918Z,101367.75
2022-08-25T18:28:39.530Z,101368.28
2022-08-25T18:31:06.499Z,101374.81
2022-08-25T18:33:34.124Z,101371.50
2022-08-25T18:36:02.068Z,101372.88
2022-08-25T18:38:47.458Z,101371.72
2022-08-25T18:41:13.947Z,101381.16
2022-08-25T18:43:40.696Z,101384.59
2022-08-25T18:46:08.270Z,101390.53
2022-08-25T18:48:36.883Z,101391.75
2022-08-25T18:51:04.583Z,101382.75
2022-08-25T18:53:37.483Z,101388.00
2022-08-25T18:56:16.452Z,101392.28
2022-08-25T18:58:42.900Z,101396.22
2022-08-25T19:01:14.362Z,101404.88
2022-08-25T19:03:43.023Z,101404.47
2022-08-25T19:06:09.814Z,101407.81
2022-08-25T19:08:39.388Z,101411.72
2022-08-25T19:11:08.539Z,101412.38
2022-08-25T19:13:35.112Z,101410.28
2022-08-25T19:16:34.176Z,101418.38
2022-08-25T19:19:01.395Z,101432.13
2022-08-25T19:21:30.133Z,101437.81
2022-08-25T19:23:56.584Z,101431.66
2022-08-25T19:26:23.536Z,101433.53
2022-08-25T19:28:52.638Z,101425.25
2022-08-25T19:31:24.592Z,101443.91
2022-08-25T19:33:53.160Z,101447.00
2022-08-25T19:36:27.943Z,101442.72
2022-08-25T19:38:58.178Z,101443.97
2022-08-25T19:41:25.067Z,101440.91
2022-08-25T19:43:56.402Z,101440.03
2022-08-25T19:46:33.120Z,101452.81
2022-08-25T19:49:09.540Z,101460.63
2022-08-25T19:51:38.236Z,101463.91
2022-08-25T19:54:06.857Z,101471.72
2022-08-25T19:56:36.259Z,101470.63
2022-08-25T19:59:03.657Z,101470.28
2022-08-25T20:01:30.167Z,101472.41
2022-08-25T20:03:56.958Z,101474.25
2022-08-25T20:06:24.205Z,101474.53
2022-08-25T20:08:58.809Z,101478.78
2022-08-25T20:11:28.748Z,101480.41
2022-08-25T20:13:58.281Z,101482.41
2022-08-25T20:16:28.270Z,101480.78
2022-08-25T20:18:55.035Z,101483.06
2022-08-25T20:21:21.590Z,101482.59
2022-08-25T20:24:07.470Z,101486.63
2022-08-25T20:26:36.529Z,101492.41
2022-08-25T20:29:05.154Z,101486.81
2022-08-25T20:31:32.440Z,101494.25
2022-08-25T20:34:00.992Z,101494.31
2022-08-25T20:36:30.016Z,101496.34
2022-08-25T20:38:59.158Z,101498.13
2022-08-25T20:41:25.771Z,101504.66
2022-08-25T20:43:52.345Z,101518.25
2022-08-25T20:46:19.074Z,101506.72
2022-08-25T20:48:45.601Z,101508.75
2022-08-25T20:51:12.921Z,101509.09
2022-08-25T20:53:42.324Z,101517.00
2022-08-25T20:56:19.200Z,101523.69
2022-08-25T20:58:46.384Z,101516.81
2022-08-25T21:01:23.187Z,101530.16
2022-08-25T21:03:50.588Z,101520.34
2022-08-25T21:06:17.695Z,101523.56
2022-08-25T21:08:46.792Z,101532.97
2022-08-25T21:11:15.428Z,101533.72
2022-08-25T21:13:42.033Z,101531.53
2022-08-25T21:16:08.981Z,101539.41
2022-08-25T21:18:36.233Z,101538.69
2022-08-25T21:21:12.246Z,101542.66
2022-08-25T21:23:40.038Z,101539.94
2022-08-25T21:26:13.696Z,101542.41
2022-08-25T21:28:40.155Z,101541.22
2022-08-25T21:31:15.211Z,101547.88
2022-08-25T21:33:42.758Z,101552.06
2022-08-25T21:36:11.369Z,101559.94
2022-08-25T21:38:39.984Z,101564.13
2022-08-25T21:41:15.439Z,101567.09
2022-08-25T21:43:42.475Z,101566.59
2022-08-25T21:46:13.418Z,101568.06
2022-08-25T21:48:40.145Z,101571.28
2022-08-25T21:51:13.532Z,101567.09
2022-08-25T21:53:40.459Z,101572.75
2022-08-25T21:56:17.266Z,101563.16
2022-08-25T21:58:46.484Z,101577.44
2022-08-25T22:01:19.868Z,101571.53
2022-08-25T22:03:47.367Z,101563.88
2022-08-25T22:06:14.883Z,101573.00
2022-08-25T22:08:43.192Z,101575.94
2022-08-25T22:11:10.709Z,101573.47
2022-08-25T22:13:37.983Z,101573.75
2022-08-25T22:16:07.756Z,101581.13
2022-08-25T22:18:34.738Z,101575.22
2022-08-25T22:21:01.529Z,101576.19
2022-08-25T22:23:44.100Z,101570.03
2022-08-25T22:26:12.027Z,101573.22
2022-08-25T22:28:39.171Z,101577.16
2022-08-25T22:31:10.373Z,101567.56
2022-08-25T22:33:37.130Z,101568.53
2022-08-25T22:36:28.475Z,101567.56
2022-08-25T22:38:55.699Z,101569.53
2022-08-25T22:41:23.629Z,101567.31
2022-08-25T22:43:53.017Z,101567.53
2022-08-25T22:46:21.540Z,101569.25
2022-08-25T22:48:50.377Z,101572.44
2022-08-25T22:51:27.043Z,101581.78
2022-08-25T22:53:54.629Z,101576.38
2022-08-25T22:56:29.736Z,101574.91
2022-08-25T22:59:02.544Z,101581.28
2022-08-25T23:01:29.591Z,101582.50
2022-08-25T23:03:56.050Z,101583.72
2022-08-25T23:06:25.012Z,101580.03
2022-08-25T23:08:53.591Z,101591.34
2022-08-25T23:11:22.246Z,101592.31
2022-08-25T23:13:49.596Z,101582.25
2022-08-25T23:16:17.089Z,101587.66
2022-08-25T23:18:44.858Z,101598.94
2022-08-25T23:21:35.061Z,101594.75
2022-08-25T23:24:05.408Z,101595.00
2022-08-25T23:26:36.271Z,101601.38
2022-08-25T23:29:07.803Z,101599.88
2022-08-25T23:31:44.650Z,101608.97
2022-08-25T23:34:11.448Z,101597.16
2022-08-25T23:36:39.805Z,101601.09
2022-08-25T23:39:07.009Z,101596.91
2022-08-25T23:41:34.787Z,101602.06
2022-08-25T23:44:05.199Z,101604.75
2022-08-25T23:46:34.752Z,101592.00
2022-08-25T23:49:03.029Z,101597.88
2022-08-25T23:51:37.161Z,101599.34
2022-08-25T23:54:07.010Z,101596.66
2022-08-25T23:56:36.771Z,101604.03
2022-08-25T23:59:10.590Z,101606.00
